Time;durP1;ratioP1;P1;durP2;ratioP2;P2;SDS_P1;SDS_P2;PMS_P1;PMS_P2;Temp;Humidity;BMP_temperature;BMP_pressure;BME280_temperature;BME280_humidity;BME280_pressure;Samples;Min_cycle;Max_cycle;Signal;HPM_P1;HPM_P2
2022/12/03 00:01:49;;;;;;;12.45;8.30;;;6.70;74.60;;;;;;5021096;28;20028;-78
2022/12/03 00:04:15;;;;;;;12.75;9.13;;;6.60;74.50;;;;;;5053190;28;20131;-78
2022/12/03 00:06:40;;;;;;;12.82;8.45;;;6.60;74.50;;;;;;5056448;28;20033;-79
2022/12/03 00:09:06;;;;;;;13.10;8.57;;;6.60;74.50;;;;;;5050359;28;20105;-78
2022/12/03 00:11:32;;;;;;;11.95;8.20;;;6.70;74.60;;;;;;5050135;28;20618;-79
2022/12/03 00:13:58;;;;;;;12.60;8.90;;;6.60;74.50;;;;;;5047504;28;20028;-79
2022/12/03 00:16:24;;;;;;;12.32;7.68;;;6.60;74.40;;;;;;5065737;28;20373;-80
2022/12/03 00:18:49;;;;;;;11.07;7.55;;;6.60;74.50;;;;;;5056127;28;20084;-79
2022/12/03 00:21:15;;;;;;;11.43;7.70;;;6.60;74.50;;;;;;5036259;28;20036;-79
2022/12/03 00:23:41;;;;;;;11.98;7.63;;;6.60;74.50;;;;;;5046670;28;20032;-79
2022/12/03 00:26:06;;;;;;;12.00;7.97;;;6.60;74.50;;;;;;5036511;28;20031;-78
2022/12/03 00:28:32;;;;;;;11.65;8.32;;;6.60;74.50;;;;;;5072383;28;20109;-78
2022/12/03 00:30:58;;;;;;;12.63;8.77;;;6.60;74.50;;;;;;5064733;28;20029;-80
2022/12/03 00:33:23;;;;;;;12.43;8.77;;;6.60;74.50;;;;;;5045949;28;20481;-78
2022/12/03 00:35:49;;;;;;;12.75;8.70;;;6.60;74.60;;;;;;5065409;28;20517;-79
2022/12/03 00:38:15;;;;;;;11.52;7.18;;;6.60;74.50;;;;;;5031329;28;20493;-78
2022/12/03 00:40:41;;;;;;;13.38;9.15;;;6.60;74.60;;;;;;5069393;28;20039;-78
2022/12/03 00:43:06;;;;;;;13.93;8.52;;;6.60;74.60;;;;;;5066758;28;20024;-78
2022/12/03 00:45:32;;;;;;;12.55;8.43;;;6.60;74.60;;;;;;5046218;28;20385;-79
2022/12/03 00:47:58;;;;;;;12.05;8.15;;;6.60;74.60;;;;;;5071415;28;20036;-77
2022/12/03 00:50:24;;;;;;;11.00;8.35;;;6.60;74.60;;;;;;5081636;28;20051;-78
2022/12/03 00:52:49;;;;;;;14.48;9.63;;;6.60;74.60;;;;;;5053882;28;20446;-78
2022/12/03 00:55:15;;;;;;;11.35;7.88;;;6.50;74.50;;;;;;5087456;28;20028;-78
2022/12/03 00:57:41;;;;;;;13.88;9.15;;;6.60;74.60;;;;;;5045298;28;20040;-80
2022/12/03 01:00:08;;;;;;;13.77;8.65;;;6.60;74.60;;;;;;5038190;28;20077;-79
2022/12/03 01:02:34;;;;;;;11.20;8.27;;;6.60;74.60;;;;;;5069931;28;20089;-78
2022/12/03 01:05:00;;;;;;;12.95;8.90;;;6.60;74.60;;;;;;5063978;28;20036;-79
2022/12/03 01:07:26;;;;;;;13.02;8.68;;;6.60;74.60;;;;;;5050374;28;20173;-79
2022/12/03 01:09:51;;;;;;;11.90;8.43;;;6.60;74.60;;;;;;5065745;28;20199;-79
2022/12/03 01:12:17;;;;;;;13.65;8.57;;;6.50;74.50;;;;;;5064049;28;20082;-79
2022/12/03 01:14:43;;;;;;;13.15;8.38;;;6.60;74.60;;;;;;5066597;28;20380;-79
2022/12/03 01:17:09;;;;;;;12.70;8.38;;;6.60;74.60;;;;;;5070615;28;20028;-78
2022/12/03 01:19:35;;;;;;;11.55;8.15;;;6.60;74.60;;;;;;5049720;28;20037;-79
2022/12/03 01:22:01;;;;;;;12.40;8.52;;;6.60;74.60;;;;;;5086890;28;20063;-79
2022/12/03 01:24:26;;;;;;;11.48;8.20;;;6.60;74.70;;;;;;5084147;28;20047;-79
2022/12/03 01:26:54;;;;;;;12.38;8.23;;;6.60;74.60;;;;;;5066609;28;20085;-78
2022/12/03 01:29:20;;;;;;;12.93;8.65;;;6.60;74.60;;;;;;5049886;28;20051;-79
2022/12/03 01:34:30;;;;;;;11.52;7.88;;;6.60;74.60;;;;;;5065093;28;20119;-79
2022/12/03 01:36:55;;;;;;;12.85;8.68;;;6.50;74.60;;;;;;5065969;28;20557;-79
2022/12/03 01:39:21;;;;;;;12.98;9.20;;;6.60;74.60;;;;;;5085394;28;20020;-78
2022/12/03 01:41:50;;;;;;;11.75;8.20;;;6.50;75.20;;;;;;5068656;28;20028;-78
2022/12/03 01:44:24;;;;;;;12.82;8.77;;;6.50;74.60;;;;;;5047329;28;20086;-79
2022/12/03 01:46:52;;;;;;;12.48;8.48;;;6.60;75.30;;;;;;5066660;28;20027;-78
2022/12/03 01:49:22;;;;;;;12.68;8.55;;;6.60;74.70;;;;;;5087831;28;20457;-80
2022/12/03 01:51:49;;;;;;;11.93;8.77;;;6.60;74.70;;;;;;5070631;28;20048;-80
2022/12/03 01:54:21;;;;;;;13.77;9.07;;;6.60;74.70;;;;;;5042771;28;20036;-78
2022/12/03 01:56:47;;;;;;;12.35;8.65;;;6.60;74.70;;;;;;5069019;28;20038;-79
2022/12/03 01:59:16;;;;;;;13.27;9.05;;;6.50;74.60;;;;;;5066441;28;20032;-79
2022/12/03 02:01:41;;;;;;;12.77;8.60;;;6.60;74.70;;;;;;5066745;28;20480;-78
2022/12/03 02:04:13;;;;;;;12.30;8.23;;;6.50;74.60;;;;;;5051708;28;20032;-78
2022/12/03 02:06:40;;;;;;;12.07;8.38;;;6.50;74.70;;;;;;5085818;28;20345;-78
2022/12/03 02:09:08;;;;;;;12.43;8.80;;;6.50;74.70;;;;;;5050381;28;20021;-78
2022/12/03 02:11:38;;;;;;;13.88;9.07;;;6.50;74.70;;;;;;5063679;28;20028;-77
2022/12/03 02:14:11;;;;;;;12.65;8.73;;;6.50;74.70;;;;;;5088346;28;20080;-78
2022/12/03 02:16:39;;;;;;;12.45;8.35;;;6.50;74.70;;;;;;5070159;28;20464;-79
2022/12/03 02:19:15;;;;;;;13.10;8.82;;;6.60;74.80;;;;;;5067877;28;20032;-79
2022/12/03 02:21:58;;;;;;;15.20;10.10;;;6.50;74.70;;;;;;5048698;28;20020;-78
2022/12/03 02:24:43;;;;;;;13.68;8.68;;;6.50;74.70;;;;;;5066750;28;20099;-78
2022/12/03 02:27:09;;;;;;;12.70;8.35;;;6.50;74.70;;;;;;5064334;28;20021;-78
2022/12/03 02:29:35;;;;;;;12.10;7.93;;;6.50;74.70;;;;;;5054903;28;20063;-78
2022/12/03 02:32:00;;;;;;;13.48;8.70;;;6.50;74.70;;;;;;5048565;28;20039;-79
2022/12/03 02:34:39;;;;;;;13.77;9.30;;;6.50;74.70;;;;;;5046343;28;20083;-78
2022/12/03 02:37:07;;;;;;;11.68;7.50;;;6.50;74.70;;;;;;5069731;28;20020;-78
2022/12/03 02:39:36;;;;;;;12.95;9.13;;;6.50;74.70;;;;;;5073421;28;20035;-79
2022/12/03 02:44:46;;;;;;;13.10;8.55;;;6.50;74.70;;;;;;5090745;28;20093;-78
2022/12/03 02:47:13;;;;;;;12.88;8.60;;;6.50;74.70;;;;;;5069620;28;20038;-79
2022/12/03 02:49:39;;;;;;;14.38;8.82;;;6.50;74.70;;;;;;5065819;28;20123;-79
2022/12/03 02:52:05;;;;;;;13.32;8.85;;;6.50;74.70;;;;;;5057091;28;20079;-79
2022/12/03 02:54:30;;;;;;;14.25;9.88;;;6.50;74.70;;;;;;5072490;28;20472;-79
2022/12/03 02:56:56;;;;;;;12.50;8.90;;;6.50;74.70;;;;;;5067288;28;20073;-79
2022/12/03 02:59:22;;;;;;;12.98;9.00;;;6.50;74.70;;;;;;5072124;28;20024;-79
2022/12/03 03:01:48;;;;;;;13.00;8.82;;;6.50;74.70;;;;;;5071798;28;20124;-81
2022/12/03 03:04:14;;;;;;;13.80;8.80;;;6.50;74.70;;;;;;5072405;28;20474;-78
2022/12/03 03:06:40;;;;;;;13.95;9.40;;;6.50;74.70;;;;;;5055398;28;20042;-79
2022/12/03 03:09:06;;;;;;;13.63;8.90;;;6.50;74.70;;;;;;5053401;28;20033;-79
2022/12/03 03:11:32;;;;;;;13.05;9.52;;;6.50;74.70;;;;;;5072643;28;20036;-78
2022/12/03 03:14:00;;;;;;;14.50;9.80;;;6.50;74.70;;;;;;5038084;28;20110;-80
2022/12/03 03:16:26;;;;;;;13.40;9.57;;;6.50;74.70;;;;;;5055417;28;20044;-79
2022/12/03 03:18:52;;;;;;;13.27;9.00;;;6.50;74.70;;;;;;5056422;28;20063;-78
2022/12/03 03:21:18;;;;;;;14.20;8.98;;;6.50;74.70;;;;;;5070441;28;20036;-80
2022/12/03 03:23:44;;;;;;;13.13;9.07;;;6.50;74.70;;;;;;5069115;28;20040;-79
2022/12/03 03:26:12;;;;;;;12.88;9.00;;;6.50;74.70;;;;;;5057509;28;20387;-80
2022/12/03 03:28:48;;;;;;;13.35;8.88;;;6.50;74.70;;;;;;5080653;28;20032;-78
2022/12/03 03:31:17;;;;;;;11.55;7.88;;;6.50;74.70;;;;;;5089612;28;20127;-79
2022/12/03 03:33:46;;;;;;;13.65;9.40;;;6.50;74.70;;;;;;5071764;28;20028;-79
2022/12/03 03:36:14;;;;;;;12.95;8.73;;;6.50;74.70;;;;;;5058184;28;20908;-79
2022/12/03 03:38:40;;;;;;;12.75;8.77;;;6.50;74.70;;;;;;5069829;28;20032;-79
2022/12/03 03:41:07;;;;;;;14.77;9.52;;;6.50;74.70;;;;;;5058249;28;20391;-78
2022/12/03 03:43:35;;;;;;;13.02;8.77;;;6.50;74.70;;;;;;5053386;28;20384;-79
2022/12/03 03:46:03;;;;;;;13.38;8.95;;;6.50;74.70;;;;;;5092342;28;20529;-78
2022/12/03 03:48:29;;;;;;;11.65;8.07;;;6.50;74.70;;;;;;5069072;28;20484;-79
2022/12/03 03:50:55;;;;;;;13.63;8.75;;;6.50;74.70;;;;;;5032920;28;20028;-80
2022/12/03 03:53:23;;;;;;;13.52;8.80;;;6.50;74.70;;;;;;5063595;28;20048;-79
2022/12/03 03:55:50;;;;;;;11.57;8.50;;;6.50;74.70;;;;;;5056561;28;20630;-78
2022/12/03 03:58:16;;;;;;;13.32;8.65;;;6.50;74.70;;;;;;5058130;28;20591;-79
2022/12/03 04:00:44;;;;;;;13.00;8.40;;;6.50;74.70;;;;;;5058779;28;20025;-80
2022/12/03 04:03:10;;;;;;;11.55;8.50;;;6.50;74.70;;;;;;5089463;28;20048;-78
2022/12/03 04:05:36;;;;;;;12.38;8.88;;;6.50;74.70;;;;;;5024373;28;20032;-78
2022/12/03 04:08:02;;;;;;;12.27;8.65;;;6.50;74.70;;;;;;5073472;28;20034;-81
2022/12/03 04:13:12;;;;;;;11.02;7.70;;;6.50;74.70;;;;;;5068934;28;20043;-79
2022/12/03 04:15:38;;;;;;;11.52;8.32;;;6.50;74.60;;;;;;5038962;28;20028;-78
2022/12/03 04:20:48;;;;;;;11.30;7.75;;;6.50;74.70;;;;;;5090008;28;20028;-78
2022/12/03 04:23:13;;;;;;;10.80;7.75;;;6.50;74.70;;;;;;5052435;28;20059;-80
2022/12/03 04:28:49;;;;;;;11.85;7.93;;;6.50;74.70;;;;;;4994448;28;20038;-79
2022/12/03 04:36:43;;;;;;;11.98;8.65;;;6.40;74.60;;;;;;5057433;28;20036;-80
2022/12/03 04:39:09;;;;;;;10.95;7.35;;;6.40;74.60;;;;;;5052053;28;20032;-79
2022/12/03 04:41:34;;;;;;;12.15;7.97;;;6.40;74.70;;;;;;5037195;28;20051;-79
2022/12/03 04:46:44;;;;;;;11.63;8.32;;;6.50;74.70;;;;;;5069424;28;20046;-79
2022/12/03 04:49:11;;;;;;;11.55;8.02;;;6.40;74.60;;;;;;5054260;28;20533;-78
2022/12/03 04:51:37;;;;;;;12.13;8.68;;;6.40;74.70;;;;;;5056265;28;20056;-79
2022/12/03 04:54:03;;;;;;;11.80;8.73;;;6.50;74.70;;;;;;5052411;28;20035;-79
2022/12/03 04:56:28;;;;;;;12.70;8.30;;;6.40;74.70;;;;;;5083410;28;20029;-79
2022/12/03 04:58:54;;;;;;;10.75;7.88;;;6.40;74.60;;;;;;5055581;28;20054;-79
2022/12/03 05:01:20;;;;;;;12.63;8.35;;;6.40;74.60;;;;;;5052354;28;20040;-79
2022/12/03 05:03:45;;;;;;;12.85;8.45;;;6.50;74.70;;;;;;5051842;28;20033;-79
2022/12/03 05:06:12;;;;;;;10.98;8.15;;;6.50;74.70;;;;;;5065646;28;20028;-79
2022/12/03 05:08:38;;;;;;;10.95;8.15;;;6.40;74.70;;;;;;5060401;28;20115;-78
2022/12/03 05:11:04;;;;;;;12.07;8.13;;;6.40;74.60;;;;;;5036564;28;20123;-79
2022/12/03 05:13:29;;;;;;;11.68;8.30;;;6.40;74.70;;;;;;5051953;28;20382;-80
2022/12/03 05:15:55;;;;;;;13.02;8.77;;;6.50;74.70;;;;;;5057724;28;20039;-78
2022/12/03 05:18:21;;;;;;;12.27;8.05;;;6.40;74.70;;;;;;5050886;28;20032;-78
2022/12/03 05:20:46;;;;;;;10.55;7.47;;;6.40;74.70;;;;;;5040521;28;20051;-79
2022/12/03 05:23:13;;;;;;;11.15;7.70;;;6.40;74.70;;;;;;5071645;28;20077;-82
2022/12/03 05:25:40;;;;;;;12.40;8.20;;;6.40;74.70;;;;;;5050760;28;20455;-80
2022/12/03 05:28:06;;;;;;;13.75;9.55;;;6.40;74.70;;;;;;5079446;28;20544;-79
2022/12/03 05:30:32;;;;;;;12.18;8.20;;;6.40;74.70;;;;;;5086877;28;20040;-79
2022/12/03 05:32:58;;;;;;;13.20;9.20;;;6.40;74.70;;;;;;5085616;28;20687;-79
2022/12/03 05:35:24;;;;;;;13.05;9.02;;;6.40;74.70;;;;;;5062303;28;20024;-81
2022/12/03 05:37:51;;;;;;;11.95;8.20;;;6.40;74.70;;;;;;5063300;28;20063;-78
2022/12/03 05:40:17;;;;;;;12.10;8.60;;;6.40;74.70;;;;;;5067000;28;20060;-80
2022/12/03 05:42:53;;;;;;;12.18;8.50;;;6.40;74.70;;;;;;5064805;28;20089;-78
2022/12/03 05:45:27;;;;;;;14.07;8.95;;;6.40;74.70;;;;;;5051357;28;20122;-78
2022/12/03 05:47:54;;;;;;;12.55;8.65;;;6.40;74.70;;;;;;5067614;28;20488;-79
2022/12/03 05:50:22;;;;;;;12.13;8.88;;;6.40;74.70;;;;;;5059874;28;20494;-81
2022/12/03 05:52:49;;;;;;;11.40;8.25;;;6.40;74.70;;;;;;5043160;28;20052;-78
2022/12/03 05:55:15;;;;;;;13.65;8.75;;;6.40;74.70;;;;;;5066702;28;20070;-78
2022/12/03 05:57:40;;;;;;;14.25;9.15;;;6.40;74.70;;;;;;5062410;28;20037;-78
2022/12/03 06:00:19;;;;;;;11.73;8.30;;;6.40;74.70;;;;;;5069935;28;20030;-80
2022/12/03 06:02:45;;;;;;;11.88;8.43;;;6.40;74.70;;;;;;5070697;28;20423;-79
2022/12/03 06:05:12;;;;;;;12.00;8.48;;;6.40;74.70;;;;;;5071818;28;20029;-79
2022/12/03 06:07:38;;;;;;;12.40;8.52;;;6.40;74.70;;;;;;5070905;28;20028;-79
2022/12/03 06:10:06;;;;;;;13.25;9.40;;;6.40;74.70;;;;;;5023189;28;20446;-78
2022/12/03 06:12:32;;;;;;;13.93;9.48;;;6.40;74.70;;;;;;5061931;28;20032;-78
2022/12/03 06:14:58;;;;;;;14.15;8.88;;;6.40;74.70;;;;;;5067723;28;20442;-78
2022/12/03 06:17:25;;;;;;;11.82;8.38;;;6.40;74.70;;;;;;5068061;28;20032;-79
2022/12/03 06:19:51;;;;;;;13.40;9.10;;;6.40;74.70;;;;;;5090363;28;20028;-79
2022/12/03 06:22:17;;;;;;;13.65;8.73;;;6.40;74.70;;;;;;5064331;28;20036;-80
2022/12/03 06:24:43;;;;;;;13.45;9.57;;;6.40;74.70;;;;;;5062925;28;20029;-79
2022/12/03 06:27:08;;;;;;;13.18;8.68;;;6.40;74.70;;;;;;5088809;28;20036;-79
2022/12/03 06:29:34;;;;;;;13.98;8.90;;;6.40;74.70;;;;;;5052013;28;20443;-79
2022/12/03 06:32:01;;;;;;;15.18;10.13;;;6.30;74.70;;;;;;5088829;28;20044;-78
2022/12/03 06:34:26;;;;;;;12.88;8.93;;;6.40;74.70;;;;;;5069438;28;20043;-79
2022/12/03 06:36:52;;;;;;;13.95;9.98;;;6.40;74.70;;;;;;5066464;28;20029;-78
2022/12/03 06:39:20;;;;;;;13.73;8.85;;;6.40;74.70;;;;;;5042803;28;20166;-79
2022/12/03 06:41:46;;;;;;;11.10;8.57;;;6.40;74.70;;;;;;5052575;28;20104;-78
2022/12/03 06:44:11;;;;;;;11.60;7.95;;;6.40;74.70;;;;;;5051296;28;20082;-77
2022/12/03 06:46:37;;;;;;;13.60;9.32;;;6.40;74.70;;;;;;5071591;28;20040;-78
2022/12/03 06:49:03;;;;;;;12.85;9.50;;;6.40;74.70;;;;;;5066081;28;21221;-79
2022/12/03 06:51:29;;;;;;;12.93;8.50;;;6.40;74.70;;;;;;5045570;28;20052;-77
2022/12/03 06:53:54;;;;;;;12.30;8.07;;;6.40;74.70;;;;;;5070641;28;20507;-79
2022/12/03 06:56:20;;;;;;;12.70;8.90;;;6.40;74.70;;;;;;5048098;28;20040;-79
2022/12/03 06:58:46;;;;;;;12.80;8.35;;;6.40;74.70;;;;;;5067095;28;20767;-78
2022/12/03 07:01:12;;;;;;;12.82;8.88;;;6.40;74.70;;;;;;5053905;28;20113;-78
2022/12/03 07:03:37;;;;;;;12.43;8.57;;;6.30;74.70;;;;;;5054353;28;20032;-79
2022/12/03 07:06:03;;;;;;;13.63;8.85;;;6.30;74.70;;;;;;5071892;28;20044;-78
2022/12/03 07:08:29;;;;;;;10.75;7.90;;;6.30;74.70;;;;;;5073373;28;20016;-79
2022/12/03 07:10:55;;;;;;;12.15;8.70;;;6.40;74.70;;;;;;5060019;28;20082;-78
2022/12/03 07:13:21;;;;;;;12.18;7.90;;;6.30;74.70;;;;;;5068595;28;20385;-78
2022/12/03 07:15:46;;;;;;;11.32;8.10;;;6.40;74.70;;;;;;5071545;28;20037;-78
2022/12/03 07:18:12;;;;;;;11.48;8.25;;;6.30;74.70;;;;;;5068436;28;20389;-78
2022/12/03 07:20:38;;;;;;;13.10;8.52;;;6.40;74.70;;;;;;5069767;28;20062;-80
2022/12/03 07:23:04;;;;;;;12.48;8.27;;;6.30;74.70;;;;;;5023019;28;20032;-79
2022/12/03 07:25:29;;;;;;;11.70;7.80;;;6.30;74.70;;;;;;5048434;28;20037;-78
2022/12/03 07:27:55;;;;;;;11.85;8.50;;;6.30;74.70;;;;;;5054763;28;20036;-78
2022/12/03 07:30:22;;;;;;;11.52;8.05;;;6.40;74.80;;;;;;5052166;28;20420;-77
2022/12/03 07:32:48;;;;;;;12.07;8.63;;;6.30;74.70;;;;;;5068207;28;20823;-77
2022/12/03 07:35:13;;;;;;;14.63;8.35;;;6.30;74.70;;;;;;5051222;28;20040;-78
2022/12/03 07:37:39;;;;;;;12.82;8.50;;;6.30;74.70;;;;;;5032385;28;20515;-78
2022/12/03 07:40:05;;;;;;;12.85;8.07;;;6.30;74.70;;;;;;5037446;28;20036;-78
2022/12/03 07:42:31;;;;;;;12.63;8.23;;;6.30;74.70;;;;;;5055381;28;20037;-77
2022/12/03 07:44:57;;;;;;;13.95;9.25;;;6.30;74.70;;;;;;5056963;28;20036;-78
2022/12/03 07:47:23;;;;;;;14.25;9.18;;;6.30;74.70;;;;;;5034179;28;20045;-77
2022/12/03 07:49:48;;;;;;;12.05;8.30;;;6.30;74.70;;;;;;5061519;28;20029;-78
2022/12/03 07:52:14;;;;;;;12.98;9.20;;;6.30;74.70;;;;;;5065704;28;20100;-77
2022/12/03 07:54:40;;;;;;;13.27;8.35;;;6.30;74.70;;;;;;5048691;28;20029;-77
2022/12/03 07:57:06;;;;;;;12.50;8.10;;;6.30;74.70;;;;;;5054106;28;20025;-78
2022/12/03 07:59:31;;;;;;;14.55;9.77;;;6.30;74.70;;;;;;5048295;28;20036;-78
2022/12/03 08:01:57;;;;;;;14.43;8.82;;;6.30;74.70;;;;;;5044794;28;20059;-79
2022/12/03 08:04:23;;;;;;;13.82;9.10;;;6.30;74.70;;;;;;5064050;28;20058;-78
2022/12/03 08:06:49;;;;;;;14.38;9.30;;;6.30;74.70;;;;;;5064452;28;20134;-78
2022/12/03 08:09:15;;;;;;;14.32;9.10;;;6.30;74.70;;;;;;5061095;28;20024;-78
2022/12/03 08:11:41;;;;;;;16.13;9.70;;;6.30;74.70;;;;;;5069282;28;20106;-78
2022/12/03 08:14:12;;;;;;;13.90;9.40;;;6.30;74.70;;;;;;5081113;28;20406;-81
2022/12/03 08:16:40;;;;;;;14.43;8.73;;;6.30;74.80;;;;;;5064221;28;20619;-78
2022/12/03 08:19:14;;;;;;;14.35;10.00;;;6.30;74.70;;;;;;5051884;28;20028;-78
2022/12/03 08:21:40;;;;;;;14.70;8.80;;;6.30;74.70;;;;;;5082480;28;20040;-78
2022/12/03 08:24:20;;;;;;;13.93;9.55;;;6.30;74.70;;;;;;5061802;28;20032;-78
2022/12/03 08:26:47;;;;;;;16.63;9.30;;;6.30;74.80;;;;;;5045096;28;20070;-78
2022/12/03 08:29:18;;;;;;;15.20;10.40;;;6.30;74.70;;;;;;5083283;28;20020;-78
2022/12/03 08:31:53;;;;;;;13.45;9.30;;;6.30;74.70;;;;;;5082945;28;20077;-77
2022/12/03 08:34:20;;;;;;;;;;;6.30;74.70;;;;;;5084654;28;20177;-78
2022/12/03 08:36:50;;;;;;;13.70;9.30;;;6.30;74.70;;;;;;5049904;28;20383;-77
2022/12/03 08:39:34;;;;;;;15.02;9.90;;;6.30;74.60;;;;;;5064631;28;20310;-80
2022/12/03 08:44:51;;;;;;;18.17;9.95;;;6.30;74.70;;;;;;5083925;28;20523;-79
2022/12/03 08:47:20;;;;;;;15.50;9.98;;;6.30;74.70;;;;;;5066463;28;20031;-78
2022/12/03 08:49:50;;;;;;;15.63;9.40;;;6.30;74.80;;;;;;5041480;28;20032;-79
2022/12/03 08:52:19;;;;;;;14.95;10.02;;;6.30;74.70;;;;;;5063183;28;20173;-79
2022/12/03 08:54:51;;;;;;;15.48;10.00;;;6.30;74.80;;;;;;5058811;28;20028;-80
2022/12/03 08:57:31;;;;;;;15.88;10.25;;;6.30;74.70;;;;;;5047453;28;20032;-79
2022/12/03 09:00:18;;;;;;;15.65;9.65;;;6.30;74.80;;;;;;5061912;28;20046;-79
2022/12/03 09:02:47;;;;;;;16.98;10.70;;;6.20;74.70;;;;;;5060598;28;20488;-78
2022/12/03 09:05:18;;;;;;;15.00;10.10;;;6.30;74.70;;;;;;5063713;28;20035;-78
2022/12/03 09:07:44;;;;;;;14.70;9.43;;;6.30;74.70;;;;;;5048129;28;20039;-79
2022/12/03 09:10:10;;;;;;;15.77;10.05;;;6.30;74.70;;;;;;5034482;28;20024;-79
2022/12/03 09:12:35;;;;;;;16.05;10.23;;;6.30;74.70;;;;;;5079791;28;20032;-79
2022/12/03 09:15:01;;;;;;;16.35;9.73;;;6.30;74.80;;;;;;5027020;28;20036;-79
2022/12/03 09:17:27;;;;;;;15.05;9.45;;;6.30;74.60;;;;;;5025337;28;20025;-79
2022/12/03 09:19:53;;;;;;;14.15;9.48;;;6.20;74.70;;;;;;5062323;28;20040;-79
2022/12/03 09:22:19;;;;;;;16.77;10.18;;;6.20;74.70;;;;;;5064386;28;20077;-78
2022/12/03 09:24:44;;;;;;;14.88;9.80;;;6.30;74.70;;;;;;5050780;28;20028;-79
2022/12/03 09:27:10;;;;;;;15.57;9.85;;;6.30;74.70;;;;;;5062152;28;20093;-79
2022/12/03 09:29:36;;;;;;;14.18;9.05;;;6.30;74.70;;;;;;5066505;28;20020;-80
2022/12/03 09:32:02;;;;;;;14.07;9.35;;;6.30;74.70;;;;;;5044554;28;20028;-79
2022/12/03 09:34:28;;;;;;;15.32;9.93;;;6.30;74.70;;;;;;5081691;28;21838;-78
2022/12/03 09:36:53;;;;;;;15.55;9.88;;;6.30;74.70;;;;;;5032716;28;20055;-80
2022/12/03 09:39:19;;;;;;;16.17;9.77;;;6.30;74.70;;;;;;5035263;28;20028;-79
2022/12/03 09:41:45;;;;;;;15.80;10.23;;;6.30;74.70;;;;;;5036518;28;20071;-80
2022/12/03 09:44:12;;;;;;;15.25;9.77;;;6.30;74.70;;;;;;5020463;28;20115;-79
2022/12/03 09:46:39;;;;;;;17.90;10.48;;;6.30;74.70;;;;;;5051840;28;20033;-80
2022/12/03 09:49:06;;;;;;;14.30;9.02;;;6.30;74.70;;;;;;5061202;28;20031;-80
2022/12/03 09:51:35;;;;;;;17.83;9.85;;;6.30;74.70;;;;;;5084028;28;20060;-79
2022/12/03 09:54:05;;;;;;;16.58;10.00;;;6.30;74.70;;;;;;5057789;28;20082;-79
2022/12/03 09:56:36;;;;;;;14.60;9.40;;;6.30;74.70;;;;;;5081909;28;20047;-79
2022/12/03 09:59:05;;;;;;;17.25;10.20;;;6.30;74.70;;;;;;5083376;28;20021;-79
2022/12/03 10:01:31;;;;;;;15.82;10.13;;;6.30;74.70;;;;;;5050990;28;20071;-79
2022/12/03 10:03:57;;;;;;;15.43;9.52;;;6.30;74.70;;;;;;5056642;28;20152;-79
2022/12/03 10:06:24;;;;;;;15.73;10.30;;;6.30;74.70;;;;;;5067329;28;20074;-78
2022/12/03 10:08:53;;;;;;;15.45;9.38;;;6.30;74.70;;;;;;5033085;28;20024;-79
2022/12/03 10:11:22;;;;;;;15.95;10.02;;;6.30;74.70;;;;;;5065909;28;20056;-79
2022/12/03 10:13:52;;;;;;;14.70;8.95;;;6.30;74.70;;;;;;5049016;28;20065;-79
2022/12/03 10:16:19;;;;;;;13.77;9.00;;;6.30;74.70;;;;;;5065208;28;20020;-79
2022/12/03 10:18:51;;;;;;;14.05;9.02;;;6.30;74.70;;;;;;5068636;28;20021;-79
2022/12/03 10:21:31;;;;;;;15.88;9.38;;;6.30;74.70;;;;;;5064567;28;20028;-79
2022/12/03 10:24:33;;;;;;;14.07;8.63;;;6.30;74.70;;;;;;5062105;28;20020;-79
2022/12/03 10:27:01;;;;;;;15.25;8.93;;;6.20;74.70;;;;;;4980380;28;20026;-78
2022/12/03 10:29:33;;;;;;;13.88;8.73;;;6.30;74.70;;;;;;5059121;28;20036;-76
2022/12/03 10:32:00;;;;;;;15.77;8.77;;;6.30;74.70;;;;;;5075941;28;20033;-76
2022/12/03 10:34:32;;;;;;;15.35;9.57;;;6.30;74.70;;;;;;5060100;28;20032;-76
2022/12/03 10:37:09;;;;;;;14.73;9.45;;;6.30;74.80;;;;;;5060359;28;20046;-78
2022/12/03 10:39:54;;;;;;;14.43;8.65;;;6.30;74.80;;;;;;5061470;28;20466;-78
2022/12/03 10:42:20;;;;;;;15.77;8.75;;;6.30;74.70;;;;;;5060893;28;20031;-78
2022/12/03 10:44:46;;;;;;;15.00;9.02;;;6.30;74.70;;;;;;5036933;28;20401;-79
2022/12/03 10:47:13;;;;;;;14.43;8.45;;;6.30;74.70;;;;;;5063937;28;20021;-77
2022/12/03 10:49:42;;;;;;;12.80;8.13;;;6.20;74.70;;;;;;5045523;28;20036;-78
2022/12/03 10:52:22;;;;;;;15.05;8.73;;;6.30;74.80;;;;;;5052731;28;20144;-76
2022/12/03 10:54:48;;;;;;;12.75;8.38;;;6.30;74.70;;;;;;5034089;28;20036;-77
2022/12/03 10:57:14;;;;;;;13.70;9.15;;;6.30;74.70;;;;;;5079877;28;20473;-76
2022/12/03 10:59:41;;;;;;;14.02;8.15;;;6.30;74.70;;;;;;5066445;28;20034;-77
2022/12/03 11:02:18;;;;;;;14.48;8.70;;;6.20;74.60;;;;;;5070121;28;20040;-77
2022/12/03 11:04:44;;;;;;;15.10;9.30;;;6.30;74.70;;;;;;5064019;28;20515;-78
2022/12/03 11:07:20;;;;;;;14.27;8.65;;;6.30;74.70;;;;;;5050734;28;20029;-78
2022/12/03 11:09:49;;;;;;;15.90;8.93;;;6.30;74.70;;;;;;5083761;28;20034;-78
2022/12/03 11:12:22;;;;;;;15.70;9.05;;;6.30;74.70;;;;;;5050281;28;20492;-78
2022/12/03 11:14:49;;;;;;;12.32;8.20;;;6.20;74.70;;;;;;5078109;28;20029;-78
2022/12/03 11:17:37;;;;;;;16.52;9.95;;;6.20;74.70;;;;;;5064229;28;20016;-78
2022/12/03 11:20:11;;;;;;;14.32;8.85;;;6.30;74.80;;;;;;5065409;28;20051;-78
2022/12/03 11:22:40;;;;;;;13.98;8.50;;;6.30;74.70;;;;;;5067792;28;20028;-78
2022/12/03 11:25:25;;;;;;;13.32;7.90;;;6.20;74.70;;;;;;5066939;28;20031;-79
2022/12/03 11:28:29;;;;;;;16.43;9.67;;;6.30;74.80;;;;;;5056048;28;20048;-78
2022/12/03 11:31:00;;;;;;;13.43;8.40;;;6.20;74.70;;;;;;5057265;28;20077;-77
2022/12/03 11:33:39;;;;;;;14.15;8.18;;;6.30;74.70;;;;;;5084412;28;20054;-78
2022/12/03 11:36:05;;;;;;;13.20;8.02;;;6.30;74.80;;;;;;5080203;28;20032;-77
2022/12/03 11:38:39;;;;;;;13.68;8.80;;;6.30;74.70;;;;;;5070708;28;20416;-77
2022/12/03 11:41:14;;;;;;;14.27;8.13;;;6.30;74.80;;;;;;5062982;28;20027;-77
2022/12/03 11:43:51;;;;;;;12.27;7.78;;;6.30;74.80;;;;;;5079518;28;20541;-77
2022/12/03 11:46:28;;;;;;;12.82;8.32;;;6.20;74.70;;;;;;5064799;28;20025;-78
2022/12/03 11:48:56;;;;;;;14.02;9.02;;;6.20;74.70;;;;;;5064798;28;20069;-79
2022/12/03 11:51:25;;;;;;;13.45;7.28;;;6.20;74.70;;;;;;5067415;28;20543;-79
2022/12/03 11:53:53;;;;;;;13.95;8.35;;;6.30;74.70;;;;;;5069285;28;20032;-80
2022/12/03 11:56:25;;;;;;;12.90;7.75;;;6.20;74.70;;;;;;5067006;28;20032;-80
2022/12/03 11:59:02;;;;;;;13.60;8.02;;;6.20;74.80;;;;;;5053970;28;20028;-80
2022/12/03 12:01:33;;;;;;;12.55;7.25;;;6.30;74.80;;;;;;5054017;28;20466;-80
2022/12/03 12:03:59;;;;;;;13.07;7.93;;;6.20;74.80;;;;;;5061723;28;20032;-79
2022/12/03 12:06:25;;;;;;;13.75;8.10;;;6.20;74.70;;;;;;5064705;28;20055;-80
2022/12/03 12:08:50;;;;;;;12.25;7.80;;;6.20;74.80;;;;;;5048705;28;20553;-79
2022/12/03 12:11:34;;;;;;;13.18;8.40;;;6.30;74.80;;;;;;5051691;28;20039;-79
2022/12/03 12:14:00;;;;;;;12.02;7.75;;;6.30;74.90;;;;;;5083771;28;20039;-77
2022/12/03 12:16:49;;;;;;;13.38;8.05;;;6.20;74.70;;;;;;5063873;28;20044;-78
2022/12/03 12:19:30;;;;;;;11.80;7.53;;;6.20;74.80;;;;;;5062141;28;20039;-77
2022/12/03 12:22:14;;;;;;;12.70;7.57;;;6.20;74.80;;;;;;5063737;28;20032;-78
2022/12/03 12:24:45;;;;;;;13.00;7.53;;;6.20;74.80;;;;;;5083720;28;20118;-78
2022/12/03 12:27:32;;;;;;;11.90;7.90;;;6.20;74.70;;;;;;5067198;28;20023;-78
2022/12/03 12:29:59;;;;;;;12.02;7.43;;;6.20;74.80;;;;;;5079745;28;20388;-79
2022/12/03 12:32:29;;;;;;;16.05;9.10;;;6.20;74.70;;;;;;5055932;28;20032;-78
2022/12/03 12:35:33;;;;;;;14.77;8.48;;;6.20;74.70;;;;;;5050862;28;20090;-78
2022/12/03 12:38:10;;;;;;;13.10;7.85;;;6.20;74.70;;;;;;5065063;28;20023;-78
2022/12/03 12:40:38;;;;;;;13.70;8.68;;;6.20;74.80;;;;;;5063437;28;20036;-78
2022/12/03 12:43:21;;;;;;;13.63;8.07;;;6.20;74.70;;;;;;5082288;28;20034;-78
2022/12/03 12:45:48;;;;;;;13.02;8.48;;;6.20;74.80;;;;;;5085848;28;20370;-77
2022/12/03 12:48:23;;;;;;;13.35;8.30;;;6.20;74.70;;;;;;5060902;28;20078;-77
2022/12/03 12:51:10;;;;;;;14.70;8.55;;;6.20;74.80;;;;;;5086480;28;20031;-77
2022/12/03 12:53:38;;;;;;;15.48;8.50;;;6.20;74.80;;;;;;5059325;28;20052;-79
2022/12/03 12:56:23;;;;;;;14.70;9.18;;;6.20;74.70;;;;;;5065321;28;20032;-79
2022/12/03 12:58:50;;;;;;;14.82;8.38;;;6.20;74.70;;;;;;5062435;28;20031;-79
2022/12/03 13:01:23;;;;;;;13.55;8.48;;;6.20;74.70;;;;;;5065399;28;20119;-79
2022/12/03 13:03:50;;;;;;;14.20;8.88;;;6.20;74.70;;;;;;5063241;28;20059;-78
2022/12/03 13:06:21;;;;;;;14.65;8.27;;;6.20;74.70;;;;;;5065091;28;20384;-78
2022/12/03 13:08:49;;;;;;;16.95;9.07;;;6.20;74.70;;;;;;5064401;28;20034;-78
2022/12/03 13:11:24;;;;;;;17.92;9.70;;;6.20;74.70;;;;;;5063337;28;20036;-79
2022/12/03 13:13:49;;;;;;;;;;;6.20;74.70;;;;;;5082000;28;20032;-79
2022/12/03 13:16:25;;;;;;;14.65;8.35;;;6.20;74.70;;;;;;5064916;28;19912;-78
2022/12/03 13:18:56;;;;;;;12.40;8.05;;;6.20;74.70;;;;;;5082367;28;20099;-78
2022/12/03 13:21:39;;;;;;;14.55;8.75;;;6.20;74.70;;;;;;5046014;28;20384;-78